sensor_id;sensor_type;location;lat;lon;timestamp;pressure;altitude;pressure_sealevel;temperature;humidity
85882;BME280;76395;51.392;21.182;2024-03-02T02:03:19;99077.06;;;9.09;79.16
85882;BME280;76395;51.392;21.182;2024-03-02T02:04:20;99082.34;;;9.09;78.54
85882;BME280;76395;51.392;21.182;2024-03-02T02:05:27;99080.03;;;9.06;79.50
85882;BME280;76395;51.392;21.182;2024-03-02T02:06:28;99078.72;;;9.10;79.24
85882;BME280;76395;51.392;21.182;2024-03-02T02:07:38;99081.97;;;9.04;79.66
85882;BME280;76395;51.392;21.182;2024-03-02T02:08:40;99077.53;;;9.05;79.03
85882;BME280;76395;51.392;21.182;2024-03-02T02:09:42;99082.25;;;9.01;79.67
85882;BME280;76395;51.392;21.182;2024-03-02T02:10:43;99077.66;;;9.03;79.59
85882;BME280;76395;51.392;21.182;2024-03-02T02:11:47;99075.41;;;9.08;79.37
85882;BME280;76395;51.392;21.182;2024-03-02T02:12:49;99075.25;;;9.10;79.78
85882;BME280;76395;51.392;21.182;2024-03-02T02:13:51;99080.94;;;9.15;79.19
85882;BME280;76395;51.392;21.182;2024-03-02T02:14:52;99071.34;;;9.14;78.98
85882;BME280;76395;51.392;21.182;2024-03-02T02:15:55;99080.78;;;9.16;79.08
85882;BME280;76395;51.392;21.182;2024-03-02T02:17:09;99078.13;;;9.16;78.82
85882;BME280;76395;51.392;21.182;2024-03-02T02:18:10;99075.69;;;9.05;79.07
85882;BME280;76395;51.392;21.182;2024-03-02T02:19:14;99075.84;;;9.04;78.45
85882;BME280;76395;51.392;21.182;2024-03-02T02:20:16;99076.38;;;9.07;79.05
85882;BME280;76395;51.392;21.182;2024-03-02T02:21:22;99075.53;;;9.07;78.57
85882;BME280;76395;51.392;21.182;2024-03-02T02:22:33;99075.84;;;9.04;79.48
85882;BME280;76395;51.392;21.182;2024-03-02T02:23:36;99073.34;;;9.02;78.86
85882;BME280;76395;51.392;21.182;2024-03-02T02:25:00;99075.00;;;9.03;78.59
85882;BME280;76395;51.392;21.182;2024-03-02T02:26:03;99073.88;;;9.06;79.12
85882;BME280;76395;51.392;21.182;2024-03-02T02:27:04;99075.00;;;9.03;78.64
85882;BME280;76395;51.392;21.182;2024-03-02T02:28:09;99073.34;;;9.02;78.53
85882;BME280;76395;51.392;21.182;2024-03-02T02:29:16;99076.69;;;9.04;78.97
85882;BME280;76395;51.392;21.182;2024-03-02T02:30:24;99077.28;;;8.98;78.39
85882;BME280;76395;51.392;21.182;2024-03-02T02:31:39;99077.28;;;8.98;79.37
85882;BME280;76395;51.392;21.182;2024-03-02T02:32:42;99073.94;;;8.96;78.85
85882;BME280;76395;51.392;21.182;2024-03-02T02:33:47;99077.75;;;8.94;78.50
85882;BME280;76395;51.392;21.182;2024-03-02T02:34:55;99067.00;;;8.95;78.34
85882;BME280;76395;51.392;21.182;2024-03-02T02:36:00;99064.22;;;8.97;79.31
85882;BME280;76395;51.392;21.182;2024-03-02T02:37:02;99070.09;;;8.91;78.91
85882;BME280;76395;51.392;21.182;2024-03-02T02:38:05;99067.59;;;8.89;79.10
85882;BME280;76395;51.392;21.182;2024-03-02T02:39:09;99060.34;;;8.91;79.13
85882;BME280;76395;51.392;21.182;2024-03-02T02:40:13;99069.94;;;8.92;79.52
85882;BME280;76395;51.392;21.182;2024-03-02T02:41:15;99069.94;;;8.92;79.52
85882;BME280;76395;51.392;21.182;2024-03-02T02:42:15;99069.56;;;8.87;79.56
85882;BME280;76395;51.392;21.182;2024-03-02T02:43:16;99068.59;;;8.88;78.57
85882;BME280;76395;51.392;21.182;2024-03-02T02:44:17;99071.19;;;8.71;80.03
85882;BME280;76395;51.392;21.182;2024-03-02T02:45:18;99071.31;;;8.69;79.58
85882;BME280;76395;51.392;21.182;2024-03-02T02:46:19;99079.97;;;8.62;80.09
85882;BME280;76395;51.392;21.182;2024-03-02T02:47:21;99076.31;;;8.72;80.35
85882;BME280;76395;51.392;21.182;2024-03-02T02:48:22;99074.06;;;8.77;79.18
85882;BME280;76395;51.392;21.182;2024-03-02T02:49:23;99079.75;;;8.82;79.39
85882;BME280;76395;51.392;21.182;2024-03-02T02:50:25;99077.41;;;8.79;79.69
85882;BME280;76395;51.392;21.182;2024-03-02T02:51:26;99072.44;;;8.67;80.27
85882;BME280;76395;51.392;21.182;2024-03-02T02:52:34;99076.31;;;8.72;80.30
85882;BME280;76395;51.392;21.182;2024-03-02T02:53:38;99078.69;;;8.75;79.54
85882;BME280;76395;51.392;21.182;2024-03-02T02:54:40;99074.47;;;8.82;79.95
85882;BME280;76395;51.392;21.182;2024-03-02T02:55:42;99068.06;;;8.85;79.82
85882;BME280;76395;51.392;21.182;2024-03-02T02:56:45;99066.22;;;8.85;80.09
85882;BME280;76395;51.392;21.182;2024-03-02T02:57:49;99071.91;;;8.90;79.66
85882;BME280;76395;51.392;21.182;2024-03-02T02:58:53;99068.72;;;8.87;78.88
85882;BME280;76395;51.392;21.182;2024-03-02T03:00:02;99063.31;;;8.88;79.45
85882;BME280;76395;51.392;21.182;2024-03-02T03:01:11;99060.78;;;8.87;79.87
85882;BME280;76395;51.392;21.182;2024-03-02T03:02:14;99063.56;;;8.85;79.15
85882;BME280;76395;51.392;21.182;2024-03-02T03:03:17;99061.28;;;8.73;79.47
85882;BME280;76395;51.392;21.182;2024-03-02T03:04:18;99064.84;;;8.81;79.40
85882;BME280;76395;51.392;21.182;2024-03-02T03:05:19;99061.56;;;8.79;80.05
85882;BME280;76395;51.392;21.182;2024-03-02T03:06:22;99061.25;;;8.82;79.71
85882;BME280;76395;51.392;21.182;2024-03-02T03:07:24;99068.38;;;8.72;79.37
85882;BME280;76395;51.392;21.182;2024-03-02T03:08:28;99063.63;;;8.76;80.48
85882;BME280;76395;51.392;21.182;2024-03-02T03:09:32;99061.22;;;8.65;80.65
85882;BME280;76395;51.392;21.182;2024-03-02T03:10:37;99063.50;;;8.77;79.85
85882;BME280;76395;51.392;21.182;2024-03-02T03:11:38;99049.75;;;8.74;80.16
85882;BME280;76395;51.392;21.182;2024-03-02T03:12:40;99054.03;;;8.75;80.40
85882;BME280;76395;51.392;21.182;2024-03-02T03:13:43;99051.91;;;8.61;81.14
85882;BME280;76395;51.392;21.182;2024-03-02T03:14:45;99048.13;;;8.63;81.63
85882;BME280;76395;51.392;21.182;2024-03-02T03:15:46;99056.00;;;8.73;80.48
85882;BME280;76395;51.392;21.182;2024-03-02T03:16:46;99053.06;;;8.76;80.83
85882;BME280;76395;51.392;21.182;2024-03-02T03:17:49;99052.53;;;8.72;80.79
85882;BME280;76395;51.392;21.182;2024-03-02T03:18:51;99055.56;;;8.77;80.79
85882;BME280;76395;51.392;21.182;2024-03-02T03:19:56;99054.44;;;8.80;79.98
85882;BME280;76395;51.392;21.182;2024-03-02T03:20:59;99048.03;;;8.82;79.91
85882;BME280;76395;51.392;21.182;2024-03-02T03:22:01;99047.88;;;8.84;79.90
85882;BME280;76395;51.392;21.182;2024-03-02T03:23:04;99050.28;;;8.77;80.66
85882;BME280;76395;51.392;21.182;2024-03-02T03:24:05;99049.28;;;8.78;80.02
85882;BME280;76395;51.392;21.182;2024-03-02T03:25:07;99048.75;;;8.75;80.28
85882;BME280;76395;51.392;21.182;2024-03-02T03:26:13;99053.50;;;8.71;80.79
85882;BME280;76395;51.392;21.182;2024-03-02T03:27:15;99051.56;;;8.73;80.76
85882;BME280;76395;51.392;21.182;2024-03-02T03:28:15;99043.03;;;8.79;80.22
85882;BME280;76395;51.392;21.182;2024-03-02T03:29:16;99043.84;;;8.80;79.88
85882;BME280;76395;51.392;21.182;2024-03-02T03:30:18;99040.94;;;8.83;79.56
85882;BME280;76395;51.392;21.182;2024-03-02T03:31:19;99041.06;;;8.81;80.77
85882;BME280;76395;51.392;21.182;2024-03-02T03:32:20;99042.75;;;8.82;80.83
85882;BME280;76395;51.392;21.182;2024-03-02T03:33:21;99049.41;;;8.86;80.31
85882;BME280;76395;51.392;21.182;2024-03-02T03:34:22;99054.53;;;8.88;80.37
85882;BME280;76395;51.392;21.182;2024-03-02T03:35:26;99050.88;;;8.89;79.84
85882;BME280;76395;51.392;21.182;2024-03-02T03:36:27;99050.56;;;8.74;80.40
85882;BME280;76395;51.392;21.182;2024-03-02T03:37:30;99052.53;;;8.72;81.06
85882;BME280;76395;51.392;21.182;2024-03-02T03:38:35;99042.06;;;8.80;79.63
85882;BME280;76395;51.392;21.182;2024-03-02T03:39:41;99042.06;;;8.80;81.27
85882;BME280;76395;51.392;21.182;2024-03-02T03:40:42;99042.06;;;8.80;80.14
85882;BME280;76395;51.392;21.182;2024-03-02T03:41:43;99033.44;;;8.78;80.45
85882;BME280;76395;51.392;21.182;2024-03-02T03:42:44;99038.28;;;8.83;80.43
85882;BME280;76395;51.392;21.182;2024-03-02T03:43:45;99042.47;;;8.76;80.59
85882;BME280;76395;51.392;21.182;2024-03-02T03:44:50;99043.63;;;8.73;80.63
85882;BME280;76395;51.392;21.182;2024-03-02T03:45:51;99047.66;;;8.77;80.11
85882;BME280;76395;51.392;21.182;2024-03-02T03:46:53;99045.53;;;8.81;80.23
85882;BME280;76395;51.392;21.182;2024-03-02T03:47:55;99036.53;;;8.74;81.15
85882;BME280;76395;51.392;21.182;2024-03-02T03:49:01;99044.16;;;8.77;80.77
85882;BME280;76395;51.392;21.182;2024-03-02T03:50:05;99029.72;;;8.71;80.92
85882;BME280;76395;51.392;21.182;2024-03-02T03:51:10;99029.88;;;8.70;80.91
85882;BME280;76395;51.392;21.182;2024-03-02T03:52:12;99035.59;;;8.65;80.35
85882;BME280;76395;51.392;21.182;2024-03-02T03:53:17;99030.84;;;8.69;81.08
85882;BME280;76395;51.392;21.182;2024-03-02T03:54:23;99037.34;;;8.74;81.30
85882;BME280;76395;51.392;21.182;2024-03-02T03:55:25;99030.63;;;8.80;80.79
85882;BME280;76395;51.392;21.182;2024-03-02T03:56:27;99031.25;;;8.74;80.85
85882;BME280;76395;51.392;21.182;2024-03-02T03:57:32;99030.09;;;8.76;80.84
85882;BME280;76395;51.392;21.182;2024-03-02T03:58:33;99031.25;;;8.74;80.07
85882;BME280;76395;51.392;21.182;2024-03-02T03:59:34;99033.91;;;8.74;80.94
85882;BME280;76395;51.392;21.182;2024-03-02T04:00:51;99027.78;;;8.73;81.23
85882;BME280;76395;51.392;21.182;2024-03-02T04:01:53;99030.72;;;8.70;80.97
85882;BME280;76395;51.392;21.182;2024-03-02T04:03:00;99030.16;;;8.67;80.65
85882;BME280;76395;51.392;21.182;2024-03-02T04:04:01;99037.69;;;8.62;81.16
85882;BME280;76395;51.392;21.182;2024-03-02T04:05:05;99034.78;;;8.65;80.77
85882;BME280;76395;51.392;21.182;2024-03-02T04:06:09;99034.63;;;8.66;81.73
85882;BME280;76395;51.392;21.182;2024-03-02T04:07:18;99033.22;;;8.72;80.89
85882;BME280;76395;51.392;21.182;2024-03-02T04:08:20;99029.72;;;8.71;81.48
85882;BME280;76395;51.392;21.182;2024-03-02T04:09:24;99034.63;;;8.66;81.45
85882;BME280;76395;51.392;21.182;2024-03-02T04:10:27;99027.28;;;8.60;81.60
85882;BME280;76395;51.392;21.182;2024-03-02T04:11:27;99026.56;;;8.68;81.11
85882;BME280;76395;51.392;21.182;2024-03-02T04:12:28;99019.00;;;8.73;81.10
85882;BME280;76395;51.392;21.182;2024-03-02T04:13:30;99024.97;;;8.75;81.64
85882;BME280;76395;51.392;21.182;2024-03-02T04:14:30;99021.97;;;8.70;80.87
85882;BME280;76395;51.392;21.182;2024-03-02T04:15:32;99025.50;;;8.78;80.51
85882;BME280;76395;51.392;21.182;2024-03-02T04:16:33;99021.22;;;8.77;80.70
85882;BME280;76395;51.392;21.182;2024-03-02T04:17:34;99016.06;;;8.76;80.92
85882;BME280;76395;51.392;21.182;2024-03-02T04:18:38;99028.53;;;8.83;81.17
85882;BME280;76395;51.392;21.182;2024-03-02T04:19:42;99026.03;;;8.82;80.28
85882;BME280;76395;51.392;21.182;2024-03-02T04:20:43;99026.19;;;8.80;80.80
85882;BME280;76395;51.392;21.182;2024-03-02T04:21:45;99018.41;;;8.79;80.73
85882;BME280;76395;51.392;21.182;2024-03-02T04:22:46;99020.06;;;8.80;80.59
85882;BME280;76395;51.392;21.182;2024-03-02T04:23:47;99033.06;;;8.73;80.74
85882;BME280;76395;51.392;21.182;2024-03-02T04:24:50;99038.03;;;8.76;80.24
85882;BME280;76395;51.392;21.182;2024-03-02T04:25:51;99040.78;;;8.84;81.30
85882;BME280;76395;51.392;21.182;2024-03-02T04:26:55;99039.09;;;8.83;80.33
85882;BME280;76395;51.392;21.182;2024-03-02T04:28:01;99032.06;;;8.74;81.42
85882;BME280;76395;51.392;21.182;2024-03-02T04:29:04;99025.19;;;8.81;81.47
85882;BME280;76395;51.392;21.182;2024-03-02T04:30:11;99034.44;;;8.77;81.36
85882;BME280;76395;51.392;21.182;2024-03-02T04:31:12;99040.00;;;8.74;81.26
85882;BME280;76395;51.392;21.182;2024-03-02T04:32:15;99035.78;;;8.81;81.37
85882;BME280;76395;51.392;21.182;2024-03-02T04:33:20;99030.41;;;8.73;80.70
85882;BME280;76395;51.392;21.182;2024-03-02T04:34:24;99028.72;;;8.72;82.12
85882;BME280;76395;51.392;21.182;2024-03-02T04:35:26;99030.25;;;8.75;81.46
85882;BME280;76395;51.392;21.182;2024-03-02T04:36:29;99036.44;;;8.66;82.18
85882;BME280;76395;51.392;21.182;2024-03-02T04:37:30;99040.59;;;8.68;82.47
85882;BME280;76395;51.392;21.182;2024-03-02T04:38:31;99036.00;;;8.70;81.16
85882;BME280;76395;51.392;21.182;2024-03-02T04:39:34;99030.41;;;8.73;81.31
85882;BME280;76395;51.392;21.182;2024-03-02T04:40:39;99039.31;;;8.72;81.45
85882;BME280;76395;51.392;21.182;2024-03-02T04:41:47;99038.19;;;8.75;81.06
85882;BME280;76395;51.392;21.182;2024-03-02T04:42:48;99038.19;;;8.75;81.16
85882;BME280;76395;51.392;21.182;2024-03-02T04:43:54;99041.06;;;8.81;81.56
85882;BME280;76395;51.392;21.182;2024-03-02T04:44:54;99033.97;;;8.82;81.25
85882;BME280;76395;51.392;21.182;2024-03-02T04:45:55;99040.25;;;8.81;81.59
85882;BME280;76395;51.392;21.182;2024-03-02T04:47:01;99027.56;;;8.84;80.88
85882;BME280;76395;51.392;21.182;2024-03-02T04:48:03;99030.75;;;8.88;81.21
85882;BME280;76395;51.392;21.182;2024-03-02T04:49:04;99027.41;;;8.86;80.97
85882;BME280;76395;51.392;21.182;2024-03-02T04:50:06;99033.75;;;8.75;81.45
85882;BME280;76395;51.392;21.182;2024-03-02T04:51:09;99029.28;;;8.76;80.54
85882;BME280;76395;51.392;21.182;2024-03-02T04:52:10;99034.44;;;8.77;81.73
85882;BME280;76395;51.392;21.182;2024-03-02T04:53:12;99029.97;;;8.78;81.08
85882;BME280;76395;51.392;21.182;2024-03-02T04:54:15;99034.56;;;8.76;81.64
85882;BME280;76395;51.392;21.182;2024-03-02T04:55:22;99035.84;;;8.72;82.02
85882;BME280;76395;51.392;21.182;2024-03-02T04:56:36;99040.31;;;8.71;81.29
85882;BME280;76395;51.392;21.182;2024-03-02T04:57:50;99033.38;;;8.70;81.28
85882;BME280;76395;51.392;21.182;2024-03-02T04:58:53;99031.53;;;8.71;81.62
85882;BME280;76395;51.392;21.182;2024-03-02T04:59:55;99037.50;;;8.73;81.70
85882;BME280;76395;51.392;21.182;2024-03-02T05:00:56;99040.84;;;8.75;81.24
85882;BME280;76395;51.392;21.182;2024-03-02T05:01:57;99038.88;;;8.77;81.16
85882;BME280;76395;51.392;21.182;2024-03-02T05:03:01;99042.06;;;8.80;82.18
85882;BME280;76395;51.392;21.182;2024-03-02T05:04:02;99047.03;;;8.83;80.92
85882;BME280;76395;51.392;21.182;2024-03-02T05:05:08;99047.38;;;8.71;81.23
85882;BME280;76395;51.392;21.182;2024-03-02T05:06:09;99050.72;;;8.73;81.17
85882;BME280;76395;51.392;21.182;2024-03-02T05:07:10;99047.13;;;8.74;81.33
85882;BME280;76395;51.392;21.182;2024-03-02T05:08:13;99051.25;;;8.76;82.18
85882;BME280;76395;51.392;21.182;2024-03-02T05:09:21;99046.69;;;8.69;81.78
85882;BME280;76395;51.392;21.182;2024-03-02T05:10:24;99053.06;;;8.76;81.63
85882;BME280;76395;51.392;21.182;2024-03-02T05:11:30;99055.84;;;8.74;81.58
85882;BME280;76395;51.392;21.182;2024-03-02T05:12:40;99061.59;;;8.70;81.72
85882;BME280;76395;51.392;21.182;2024-03-02T05:13:47;99060.03;;;8.77;81.89
85882;BME280;76395;51.392;21.182;2024-03-02T05:14:48;99064.72;;;8.83;81.57
85882;BME280;76395;51.392;21.182;2024-03-02T05:15:50;99073.19;;;8.86;81.76
85882;BME280;76395;51.392;21.182;2024-03-02T05:16:52;99070.13;;;8.81;81.41
85882;BME280;76395;51.392;21.182;2024-03-02T05:17:55;99067.78;;;8.78;82.23
85882;BME280;76395;51.392;21.182;2024-03-02T05:18:57;99070.28;;;8.80;81.75
85882;BME280;76395;51.392;21.182;2024-03-02T05:19:58;99066.72;;;8.71;82.82
85882;BME280;76395;51.392;21.182;2024-03-02T05:20:59;99065.84;;;8.80;82.29
85882;BME280;76395;51.392;21.182;2024-03-02T05:22:03;99062.19;;;8.81;81.30
85882;BME280;76395;51.392;21.182;2024-03-02T05:23:05;99064.09;;;8.89;81.13
85882;BME280;76395;51.392;21.182;2024-03-02T05:24:07;99066.22;;;8.85;81.76
85882;BME280;76395;51.392;21.182;2024-03-02T05:25:09;99059.28;;;8.84;81.34
85882;BME280;76395;51.392;21.182;2024-03-02T05:26:11;99055.03;;;8.74;82.16
85882;BME280;76395;51.392;21.182;2024-03-02T05:27:15;99060.03;;;8.77;81.90
85882;BME280;76395;51.392;21.182;2024-03-02T05:28:16;99058.28;;;8.85;81.44
85882;BME280;76395;51.392;21.182;2024-03-02T05:29:24;99064.56;;;8.84;81.48
85882;BME280;76395;51.392;21.182;2024-03-02T05:30:28;99069.16;;;8.82;81.59
85882;BME280;76395;51.392;21.182;2024-03-02T05:31:32;99071.91;;;8.90;81.23
85882;BME280;76395;51.392;21.182;2024-03-02T05:32:33;99077.22;;;8.90;81.41
85882;BME280;76395;51.392;21.182;2024-03-02T05:33:34;99070.09;;;8.91;81.18
85882;BME280;76395;51.392;21.182;2024-03-02T05:34:35;99065.63;;;8.91;80.92
85882;BME280;76395;51.392;21.182;2024-03-02T05:35:36;99069.28;;;8.90;81.74
85882;BME280;76395;51.392;21.182;2024-03-02T05:36:39;99079.53;;;8.93;80.87
85882;BME280;76395;51.392;21.182;2024-03-02T05:37:39;99074.56;;;8.90;81.41
85882;BME280;76395;51.392;21.182;2024-03-02T05:38:41;99073.47;;;8.83;81.55
85882;BME280;76395;51.392;21.182;2024-03-02T05:39:43;99079.59;;;8.84;81.60
85882;BME280;76395;51.392;21.182;2024-03-02T05:40:44;99075.16;;;8.84;81.25
85882;BME280;76395;51.392;21.182;2024-03-02T05:41:45;99090.44;;;8.90;81.27
85882;BME280;76395;51.392;21.182;2024-03-02T05:42:47;99085.13;;;8.90;81.44
85882;BME280;76395;51.392;21.182;2024-03-02T05:43:48;99091.91;;;8.93;80.85
85882;BME280;76395;51.392;21.182;2024-03-02T05:44:50;99092.66;;;8.85;81.48
85882;BME280;76395;51.392;21.182;2024-03-02T05:45:51;99088.06;;;8.87;81.21
85882;BME280;76395;51.392;21.182;2024-03-02T05:46:53;99085.34;;;8.79;82.07
85882;BME280;76395;51.392;21.182;2024-03-02T05:48:08;99084.50;;;8.79;81.44
85882;BME280;76395;51.392;21.182;2024-03-02T05:49:10;99086.56;;;8.85;81.29
85882;BME280;76395;51.392;21.182;2024-03-02T05:50:11;99084.56;;;8.87;81.96
85882;BME280;76395;51.392;21.182;2024-03-02T05:51:25;99078.22;;;8.80;82.10
85882;BME280;76395;51.392;21.182;2024-03-02T05:52:28;99077.78;;;8.84;81.10
85882;BME280;76395;51.392;21.182;2024-03-02T05:53:30;99077.31;;;8.89;80.53
85882;BME280;76395;51.392;21.182;2024-03-02T05:54:34;99077.06;;;8.92;81.76
85882;BME280;76395;51.392;21.182;2024-03-02T05:55:35;99075.63;;;8.97;81.17
85882;BME280;76395;51.392;21.182;2024-03-02T05:56:39;99080.06;;;8.97;81.22
85882;BME280;76395;51.392;21.182;2024-03-02T05:57:40;99075.53;;;8.89;81.21
85882;BME280;76395;51.392;21.182;2024-03-02T05:58:44;99077.44;;;8.97;80.99
85882;BME280;76395;51.392;21.182;2024-03-02T05:59:48;99074.63;;;8.98;80.79
85882;BME280;76395;51.392;21.182;2024-03-02T06:00:52;99075.91;;;8.94;81.20
85882;BME280;76395;51.392;21.182;2024-03-02T06:01:55;99074.25;;;8.93;80.94
85882;BME280;76395;51.392;21.182;2024-03-02T06:02:56;99073.34;;;9.02;80.39
85882;BME280;76395;51.392;21.182;2024-03-02T06:03:57;99071.22;;;8.88;80.79
85882;BME280;76395;51.392;21.182;2024-03-02T06:04:59;99081.88;;;8.96;81.20
85882;BME280;76395;51.392;21.182;2024-03-02T06:06:00;99077.44;;;8.97;80.77
85882;BME280;76395;51.392;21.182;2024-03-02T06:07:01;99080.91;;;8.97;81.33
85882;BME280;76395;51.392;21.182;2024-03-02T06:08:03;99084.56;;;8.87;81.60
85882;BME280;76395;51.392;21.182;2024-03-02T06:09:15;99085.13;;;8.90;81.65
85882;BME280;76395;51.392;21.182;2024-03-02T06:10:19;99084.91;;;9.01;80.62
85882;BME280;76395;51.392;21.182;2024-03-02T06:11:21;99076.84;;;9.03;80.71
85882;BME280;76395;51.392;21.182;2024-03-02T06:12:22;99076.53;;;9.06;80.96
85882;BME280;76395;51.392;21.182;2024-03-02T06:13:24;99082.50;;;9.08;80.96
85882;BME280;76395;51.392;21.182;2024-03-02T06:14:26;99076.06;;;9.10;80.85
85882;BME280;76395;51.392;21.182;2024-03-02T06:15:29;99078.28;;;9.15;80.63
85882;BME280;76395;51.392;21.182;2024-03-02T06:16:30;99074.13;;;9.12;80.90
85882;BME280;76395;51.392;21.182;2024-03-02T06:17:38;99077.53;;;9.05;80.87
85882;BME280;76395;51.392;21.182;2024-03-02T06:18:38;99077.75;;;9.11;80.74
85882;BME280;76395;51.392;21.182;2024-03-02T06:19:41;99069.66;;;9.13;80.06
85882;BME280;76395;51.392;21.182;2024-03-02T06:20:42;99082.03;;;9.12;80.03
85882;BME280;76395;51.392;21.182;2024-03-02T06:21:44;99081.50;;;9.09;80.40
85882;BME280;76395;51.392;21.182;2024-03-02T06:22:44;99077.22;;;9.08;80.28
85882;BME280;76395;51.392;21.182;2024-03-02T06:23:45;99085.16;;;9.08;80.85
85882;BME280;76395;51.392;21.182;2024-03-02T06:24:47;99083.19;;;9.10;80.51
85882;BME280;76395;51.392;21.182;2024-03-02T06:25:48;99088.34;;;9.11;80.37
85882;BME280;76395;51.392;21.182;2024-03-02T06:26:50;99084.78;;;9.03;80.55
85882;BME280;76395;51.392;21.182;2024-03-02T06:27:51;99090.13;;;9.11;80.85
85882;BME280;76395;51.392;21.182;2024-03-02T06:28:52;99089.28;;;9.10;80.31
85882;BME280;76395;51.392;21.182;2024-03-02T06:29:55;99092.72;;;9.03;81.46
85882;BME280;76395;51.392;21.182;2024-03-02T06:30:56;99098.91;;;9.11;80.50
85882;BME280;76395;51.392;21.182;2024-03-02T06:31:56;99091.72;;;9.04;80.45
85882;BME280;76395;51.392;21.182;2024-03-02T06:32:57;99096.16;;;9.03;81.34
85882;BME280;76395;51.392;21.182;2024-03-02T06:33:58;99099.50;;;9.05;80.92
85882;BME280;76395;51.392;21.182;2024-03-02T06:34:59;99108.13;;;9.07;81.21
85882;BME280;76395;51.392;21.182;2024-03-02T06:36:01;99098.00;;;9.03;81.41
85882;BME280;76395;51.392;21.182;2024-03-02T06:37:03;99095.25;;;9.12;81.03
85882;BME280;76395;51.392;21.182;2024-03-02T06:38:03;99090.19;;;9.01;80.72
85882;BME280;76395;51.392;21.182;2024-03-02T06:39:05;99090.97;;;9.11;80.94
85882;BME280;76395;51.392;21.182;2024-03-02T06:40:07;99094.69;;;9.18;80.37
85882;BME280;76395;51.392;21.182;2024-03-02T06:41:09;99094.00;;;9.16;80.48
85882;BME280;76395;51.392;21.182;2024-03-02T06:42:11;99097.47;;;9.17;80.25
85882;BME280;76395;51.392;21.182;2024-03-02T06:43:11;99099.66;;;9.21;80.83
85882;BME280;76395;51.392;21.182;2024-03-02T06:44:13;99104.28;;;9.19;80.51
85882;BME280;76395;51.392;21.182;2024-03-02T06:45:14;99103.31;;;9.20;80.50
85882;BME280;76395;51.392;21.182;2024-03-02T06:46:16;99106.31;;;9.08;81.59
85882;BME280;76395;51.392;21.182;2024-03-02T06:47:16;99107.97;;;9.09;81.19
85882;BME280;76395;51.392;21.182;2024-03-02T06:48:19;99102.81;;;9.07;81.39
85882;BME280;76395;51.392;21.182;2024-03-02T06:49:24;99108.13;;;9.07;81.15
85882;BME280;76395;51.392;21.182;2024-03-02T06:50:25;99105.03;;;9.12;81.15
85882;BME280;76395;51.392;21.182;2024-03-02T06:51:27;99106.16;;;9.09;81.12
85882;BME280;76395;51.392;21.182;2024-03-02T06:52:28;99103.66;;;9.08;80.98
85882;BME280;76395;51.392;21.182;2024-03-02T06:53:29;99112.88;;;9.04;81.67
85882;BME280;76395;51.392;21.182;2024-03-02T06:54:30;99104.09;;;9.03;80.68
85882;BME280;76395;51.392;21.182;2024-03-02T06:55:32;99106.75;;;9.03;81.36
85882;BME280;76395;51.392;21.182;2024-03-02T06:56:34;99115.13;;;8.99;80.72
85882;BME280;76395;51.392;21.182;2024-03-02T06:57:36;99118.25;;;9.12;81.68
85882;BME280;76395;51.392;21.182;2024-03-02T06:58:36;99111.13;;;9.12;81.10
85882;BME280;76395;51.392;21.182;2024-03-02T06:59:38;99110.16;;;9.13;80.83
85882;BME280;76395;51.392;21.182;2024-03-02T07:00:39;99109.88;;;9.16;79.82
85882;BME280;76395;51.392;21.182;2024-03-02T07:01:40;99109.59;;;9.19;80.87
85882;BME280;76395;51.392;21.182;2024-03-02T07:02:44;99102.63;;;9.18;80.54
85882;BME280;76395;51.392;21.182;2024-03-02T07:03:50;99113.72;;;9.22;80.10
85882;BME280;76395;51.392;21.182;2024-03-02T07:04:51;99116.84;;;9.17;79.82
85882;BME280;76395;51.392;21.182;2024-03-02T07:05:52;99110.56;;;9.18;80.10
85882;BME280;76395;51.392;21.182;2024-03-02T07:06:53;99113.88;;;9.20;80.94
85882;BME280;76395;51.392;21.182;2024-03-02T07:07:54;99108.59;;;9.20;80.84
85882;BME280;76395;51.392;21.182;2024-03-02T07:08:55;99107.75;;;9.20;80.70
85882;BME280;76395;51.392;21.182;2024-03-02T07:09:56;99114.25;;;9.26;80.54
85882;BME280;76395;51.392;21.182;2024-03-02T07:10:57;99121.38;;;9.25;81.33
85882;BME280;76395;51.392;21.182;2024-03-02T07:11:57;99116.22;;;9.23;79.92
85882;BME280;76395;51.392;21.182;2024-03-02T07:12:58;99105.34;;;9.27;80.06
85882;BME280;76395;51.392;21.182;2024-03-02T07:14:00;99114.09;;;9.27;80.91
85882;BME280;76395;51.392;21.182;2024-03-02T07:15:00;99114.09;;;9.27;80.10
85882;BME280;76395;51.392;21.182;2024-03-02T07:16:23;99114.78;;;9.29;80.38
85882;BME280;76395;51.392;21.182;2024-03-02T07:17:33;99122.03;;;9.27;80.39
85882;BME280;76395;51.392;21.182;2024-03-02T07:18:35;99128.63;;;9.23;80.27
85882;BME280;76395;51.392;21.182;2024-03-02T07:19:41;99124.16;;;9.23;80.31
85882;BME280;76395;51.392;21.182;2024-03-02T07:20:42;99125.03;;;9.14;81.45
85882;BME280;76395;51.392;21.182;2024-03-02T07:21:43;99125.84;;;9.25;81.13
85882;BME280;76395;51.392;21.182;2024-03-02T07:22:44;99123.88;;;9.27;81.36
85882;BME280;76395;51.392;21.182;2024-03-02T07:23:45;99128.69;;;9.31;80.15
85882;BME280;76395;51.392;21.182;2024-03-02T07:24:49;99126.31;;;9.38;80.34
85882;BME280;76395;51.392;21.182;2024-03-02T07:25:50;99127.66;;;9.42;80.27
85882;BME280;76395;51.392;21.182;2024-03-02T07:26:52;99133.84;;;9.33;80.79
85882;BME280;76395;51.392;21.182;2024-03-02T07:27:53;99139.81;;;9.35;80.30
85882;BME280;76395;51.392;21.182;2024-03-02T07:28:54;99130.22;;;9.34;81.21
85882;BME280;76395;51.392;21.182;2024-03-02T07:29:56;99137.47;;;9.32;80.36
85882;BME280;76395;51.392;21.182;2024-03-02T07:31:01;99141.34;;;9.37;79.80
85882;BME280;76395;51.392;21.182;2024-03-02T07:32:02;99137.56;;;9.40;80.34
85882;BME280;76395;51.392;21.182;2024-03-02T07:33:04;99138.69;;;9.37;80.28
85882;BME280;76395;51.392;21.182;2024-03-02T07:34:05;99139.22;;;9.41;79.86
85882;BME280;76395;51.392;21.182;2024-03-02T07:35:06;99136.19;;;9.36;80.54
85882;BME280;76395;51.392;21.182;2024-03-02T07:36:08;99138.69;;;9.37;80.63